createdAt,value
2022-12-18T00:00:06.857Z,1.30
2022-12-18T00:02:33.603Z,1.30
2022-12-18T00:05:00.212Z,1.30
2022-12-18T00:07:26.791Z,1.30
2022-12-18T00:09:53.354Z,1.30
2022-12-18T00:12:19.968Z,1.40
2022-12-18T00:14:46.716Z,1.40
2022-12-18T00:17:13.276Z,1.40
2022-12-18T00:19:39.853Z,1.40
2022-12-18T00:22:07.187Z,1.40
2022-12-18T00:24:33.819Z,1.30
2022-12-18T00:27:00.383Z,1.30
2022-12-18T00:29:26.963Z,1.20
2022-12-18T00:31:53.529Z,1.30
2022-12-18T00:34:20.119Z,1.30
2022-12-18T00:36:48.926Z,1.30
2022-12-18T00:39:15.521Z,1.30
2022-12-18T00:42:00.606Z,1.40
2022-12-18T00:44:27.167Z,1.40
2022-12-18T00:46:53.715Z,1.40
2022-12-18T00:49:21.151Z,1.40
2022-12-18T00:51:48.738Z,1.50
2022-12-18T00:54:16.260Z,1.50
2022-12-18T00:56:49.349Z,1.40
2022-12-18T00:59:17.704Z,1.40
2022-12-18T01:01:44.724Z,1.50
2022-12-18T01:04:11.507Z,1.50
2022-12-18T01:06:38.234Z,1.50
2022-12-18T01:09:05.170Z,1.50
2022-12-18T01:11:32.299Z,1.50
2022-12-18T01:13:58.865Z,1.40
2022-12-18T01:16:25.495Z,1.40
2022-12-18T01:18:54.583Z,1.40
2022-12-18T01:21:22.463Z,1.50
2022-12-18T01:23:53.266Z,1.50
2022-12-18T01:26:20.058Z,1.50
2022-12-18T01:28:46.759Z,1.50
2022-12-18T01:31:16.139Z,1.50
2022-12-18T01:33:43.427Z,1.50
2022-12-18T01:36:19.422Z,1.60
2022-12-18T01:38:46.643Z,1.60
2022-12-18T01:41:14.056Z,1.60
2022-12-18T01:44:00.900Z,1.70
2022-12-18T01:46:28.664Z,1.60
2022-12-18T01:48:58.873Z,1.60
2022-12-18T01:51:27.627Z,1.50
2022-12-18T01:53:54.336Z,1.60
2022-12-18T01:56:22.257Z,1.60
2022-12-18T01:59:08.372Z,1.60
2022-12-18T02:01:35.740Z,1.60
2022-12-18T02:04:26.221Z,1.60
2022-12-18T02:07:06.364Z,1.70
2022-12-18T02:09:41.829Z,1.60
2022-12-18T02:12:23.942Z,1.60
2022-12-18T02:14:53.309Z,1.60
2022-12-18T02:17:24.374Z,1.60
2022-12-18T02:20:05.115Z,1.60
2022-12-18T02:22:47.120Z,1.60
2022-12-18T02:25:28.756Z,1.60
2022-12-18T02:27:58.999Z,1.60
2022-12-18T02:30:26.643Z,1.60
2022-12-18T02:32:55.250Z,1.60
2022-12-18T02:35:25.511Z,1.50
2022-12-18T02:37:52.609Z,1.40
2022-12-18T02:40:20.676Z,1.40
2022-12-18T02:42:47.710Z,1.40
2022-12-18T02:45:14.644Z,1.30
2022-12-18T02:47:46.572Z,1.30
2022-12-18T02:50:30.085Z,1.40
2022-12-18T02:53:18.883Z,1.30
2022-12-18T02:56:18.454Z,1.20
2022-12-18T02:59:12.253Z,1.20
2022-12-18T03:02:01.122Z,1.20
2022-12-18T03:04:33.767Z,1.20
2022-12-18T03:07:05.104Z,1.30
2022-12-18T03:09:40.355Z,1.20
2022-12-18T03:12:28.637Z,1.20
2022-12-18T03:15:18.488Z,1.30
2022-12-18T03:17:49.827Z,1.30
2022-12-18T03:20:20.455Z,1.30
2022-12-18T03:22:52.081Z,1.40
2022-12-18T03:25:20.210Z,1.30
2022-12-18T03:27:54.749Z,1.40
2022-12-18T03:30:21.742Z,1.40
2022-12-18T03:33:06.853Z,1.40
2022-12-18T03:35:39.952Z,1.50
2022-12-18T03:38:07.132Z,1.50
2022-12-18T03:41:03.719Z,1.50
2022-12-18T03:43:46.697Z,1.50
2022-12-18T03:46:25.224Z,1.50
2022-12-18T03:49:10.800Z,1.50
2022-12-18T03:52:00.332Z,1.40
2022-12-18T03:54:29.298Z,1.40
2022-12-18T03:57:05.749Z,1.40
2022-12-18T03:59:33.806Z,1.40
2022-12-18T04:02:02.593Z,1.40
2022-12-18T04:04:31.273Z,1.40
2022-12-18T04:06:59.286Z,1.40
2022-12-18T04:09:27.076Z,1.40
2022-12-18T04:11:53.906Z,1.30
2022-12-18T04:14:20.587Z,1.20
2022-12-18T04:16:47.382Z,1.20
2022-12-18T04:19:14.045Z,1.20
2022-12-18T04:21:41.007Z,1.20
2022-12-18T04:24:07.943Z,1.20
2022-12-18T04:26:34.747Z,1.20
2022-12-18T04:29:01.337Z,1.20
2022-12-18T04:31:28.222Z,1.20
2022-12-18T04:33:54.902Z,1.20
2022-12-18T04:36:22.207Z,1.30
2022-12-18T04:38:48.878Z,1.20
2022-12-18T04:41:15.498Z,1.10
2022-12-18T04:43:42.251Z,1.00
2022-12-18T04:46:09.918Z,1.00
2022-12-18T04:48:37.019Z,0.90
2022-12-18T04:51:05.268Z,0.90
2022-12-18T04:53:32.456Z,0.90
2022-12-18T04:56:10.796Z,0.90
2022-12-18T04:58:38.642Z,0.80
2022-12-18T05:01:07.044Z,0.80
2022-12-18T05:03:34.245Z,0.70
2022-12-18T05:06:01.262Z,0.70
2022-12-18T05:08:27.974Z,0.60
2022-12-18T05:11:06.386Z,0.60
2022-12-18T05:13:33.675Z,0.60
2022-12-18T05:16:00.372Z,0.60
2022-12-18T05:18:27.308Z,0.60
2022-12-18T05:20:54.592Z,0.50
2022-12-18T05:23:22.311Z,0.60
2022-12-18T05:26:04.858Z,0.60
2022-12-18T05:28:33.982Z,0.60
2022-12-18T05:31:03.314Z,0.60
2022-12-18T05:33:32.459Z,0.60
2022-12-18T05:36:02.158Z,0.60
2022-12-18T05:38:30.139Z,0.60
2022-12-18T05:40:57.030Z,0.60
2022-12-18T05:43:24.959Z,0.60
2022-12-18T05:45:53.651Z,0.60
2022-12-18T05:48:20.894Z,0.70
2022-12-18T05:50:49.920Z,0.80
2022-12-18T05:53:20.098Z,0.70
2022-12-18T05:55:47.093Z,0.70
2022-12-18T05:58:15.532Z,0.70
2022-12-18T06:00:46.500Z,0.60
2022-12-18T06:03:14.400Z,0.70
2022-12-18T06:05:43.762Z,0.80
2022-12-18T06:08:11.498Z,0.90
2022-12-18T06:10:38.439Z,0.90
2022-12-18T06:13:05.627Z,0.80
2022-12-18T06:15:32.679Z,0.80
2022-12-18T06:17:59.255Z,0.80
2022-12-18T06:20:29.172Z,0.80
2022-12-18T06:22:59.886Z,0.90
2022-12-18T06:25:27.041Z,1.00
2022-12-18T06:27:53.616Z,1.00
2022-12-18T06:30:20.262Z,1.00
2022-12-18T06:32:50.488Z,1.10
2022-12-18T06:35:19.738Z,1.10
2022-12-18T06:37:47.733Z,1.10
2022-12-18T06:40:14.406Z,1.00
2022-12-18T06:42:41.025Z,1.10
2022-12-18T06:45:08.403Z,1.10
2022-12-18T06:47:35.001Z,1.10
2022-12-18T06:50:01.604Z,1.10
2022-12-18T06:52:28.165Z,1.10
2022-12-18T06:54:54.800Z,1.10
2022-12-18T06:57:22.046Z,1.10
2022-12-18T06:59:48.588Z,1.20
2022-12-18T07:02:15.511Z,1.20
2022-12-18T07:04:42.274Z,1.20
2022-12-18T07:07:08.892Z,1.10
2022-12-18T07:09:35.795Z,1.10
2022-12-18T07:12:02.643Z,1.10
2022-12-18T07:14:29.343Z,1.10
2022-12-18T07:16:57.519Z,1.10
2022-12-18T07:19:24.479Z,1.10
2022-12-18T07:21:51.816Z,1.10
2022-12-18T07:24:18.711Z,1.10
2022-12-18T07:26:47.833Z,1.10
2022-12-18T07:29:14.612Z,1.10
2022-12-18T07:31:41.477Z,1.10
2022-12-18T07:34:15.552Z,1.10
2022-12-18T07:36:42.523Z,1.00
2022-12-18T07:39:09.470Z,1.00
2022-12-18T07:41:36.127Z,1.10
2022-12-18T07:44:02.811Z,1.10
2022-12-18T07:46:29.465Z,1.10
2022-12-18T07:48:56.227Z,1.20
2022-12-18T07:51:22.889Z,1.20
2022-12-18T07:53:52.409Z,1.30
2022-12-18T07:56:28.624Z,1.30
2022-12-18T07:58:56.234Z,1.40
2022-12-18T08:01:23.322Z,1.40
2022-12-18T08:03:52.099Z,1.30
2022-12-18T08:06:19.642Z,1.10
2022-12-18T08:08:55.388Z,1.20
2022-12-18T08:11:24.212Z,1.20
2022-12-18T08:13:51.125Z,1.20
2022-12-18T08:16:18.946Z,1.20
2022-12-18T08:18:46.494Z,1.30
2022-12-18T08:21:15.981Z,1.20
2022-12-18T08:23:43.740Z,1.10
2022-12-18T08:26:12.725Z,1.00
2022-12-18T08:28:40.137Z,0.90
2022-12-18T08:31:07.322Z,0.90
2022-12-18T08:33:35.652Z,0.80
2022-12-18T08:36:03.400Z,0.70
2022-12-18T08:38:30.022Z,0.70
2022-12-18T08:41:07.420Z,0.70
2022-12-18T08:43:55.062Z,0.70
2022-12-18T08:46:24.528Z,0.70
2022-12-18T08:48:56.573Z,0.70
2022-12-18T08:51:23.242Z,0.70
2022-12-18T08:53:49.855Z,0.60
2022-12-18T08:56:17.032Z,0.60
2022-12-18T08:58:43.687Z,0.60
2022-12-18T09:01:12.884Z,0.60
2022-12-18T09:03:40.413Z,0.60
2022-12-18T09:06:07.881Z,0.60
2022-12-18T09:08:37.691Z,0.70
2022-12-18T09:11:05.051Z,0.70
2022-12-18T09:13:31.975Z,0.70
2022-12-18T09:15:58.683Z,0.70
2022-12-18T09:18:25.995Z,0.80
2022-12-18T09:20:53.746Z,0.80
2022-12-18T09:23:21.111Z,0.80
2022-12-18T09:25:48.159Z,0.80
2022-12-18T09:28:17.172Z,0.80
2022-12-18T09:30:47.388Z,0.90
2022-12-18T09:33:17.687Z,0.90
2022-12-18T09:35:45.862Z,1.00
2022-12-18T09:38:19.045Z,0.90
2022-12-18T09:40:49.557Z,1.00
2022-12-18T09:43:30.568Z,1.00
2022-12-18T09:46:04.297Z,1.00
2022-12-18T09:48:38.298Z,1.10
2022-12-18T09:51:14.573Z,1.10
2022-12-18T09:53:45.401Z,1.20
2022-12-18T09:56:19.205Z,1.30
2022-12-18T09:59:06.267Z,1.40
2022-12-18T10:01:43.236Z,1.40
2022-12-18T10:04:11.431Z,1.40
2022-12-18T10:06:50.128Z,1.40
2022-12-18T10:09:39.391Z,1.30
2022-12-18T10:12:28.159Z,1.30
2022-12-18T10:15:20.728Z,1.40
2022-12-18T10:17:59.201Z,1.50
2022-12-18T10:20:36.117Z,1.50
2022-12-18T10:23:09.123Z,1.40
2022-12-18T10:25:56.447Z,1.50
2022-12-18T10:28:25.189Z,1.50
2022-12-18T10:30:52.039Z,1.40
2022-12-18T10:33:22.432Z,1.40
2022-12-18T10:35:51.598Z,1.50
2022-12-18T10:38:18.866Z,1.40
2022-12-18T10:41:01.892Z,1.40
2022-12-18T10:43:31.492Z,1.30
2022-12-18T10:46:10.402Z,1.40
2022-12-18T10:48:43.157Z,1.40
2022-12-18T10:51:13.072Z,1.30
2022-12-18T10:53:42.301Z,1.40
2022-12-18T10:56:09.799Z,1.30
2022-12-18T10:58:38.819Z,1.40
2022-12-18T11:01:17.726Z,1.40
2022-12-18T11:04:02.612Z,1.40
2022-12-18T11:06:30.594Z,1.40
2022-12-18T11:09:06.599Z,1.50
2022-12-18T11:11:39.007Z,1.50
2022-12-18T11:14:27.076Z,1.50
2022-12-18T11:19:43.342Z,1.60
2022-12-18T11:22:34.640Z,1.60
2022-12-18T11:27:58.839Z,1.80
2022-12-18T11:30:34.368Z,1.90
2022-12-18T11:33:13.800Z,1.90
2022-12-18T11:36:03.594Z,1.90
2022-12-18T11:38:34.853Z,1.90
2022-12-18T11:41:13.239Z,1.80
2022-12-18T11:44:00.423Z,1.70
2022-12-18T11:46:31.891Z,1.70
2022-12-18T11:49:07.157Z,1.70
2022-12-18T11:51:39.514Z,1.70
2022-12-18T11:54:14.729Z,1.90
2022-12-18T11:56:50.191Z,1.80
2022-12-18T11:59:41.136Z,1.80
2022-12-18T12:02:16.771Z,1.90
2022-12-18T12:04:58.923Z,1.90
2022-12-18T12:08:01.948Z,1.90
2022-12-18T12:10:38.754Z,1.90
2022-12-18T12:13:20.494Z,1.90
2022-12-18T12:16:08.801Z,1.90
2022-12-18T12:18:48.059Z,1.80
2022-12-18T12:21:33.870Z,1.80
2022-12-18T12:24:38.054Z,1.90
2022-12-18T12:27:32.229Z,1.90
2022-12-18T12:30:06.066Z,1.90
2022-12-18T12:32:46.813Z,1.80
2022-12-18T12:35:26.496Z,1.80
2022-12-18T12:38:36.711Z,1.80
2022-12-18T12:41:30.487Z,1.80
2022-12-18T12:44:00.884Z,1.80
2022-12-18T12:46:28.870Z,1.90
2022-12-18T12:48:57.240Z,1.80
2022-12-18T12:51:45.550Z,1.90
2022-12-18T12:54:25.565Z,2.00
2022-12-18T12:57:10.466Z,2.10
2022-12-18T13:00:01.752Z,2.00
2022-12-18T13:02:50.450Z,2.00
2022-12-18T13:05:26.064Z,2.20
2022-12-18T13:08:09.812Z,2.30
2022-12-18T13:10:43.224Z,2.20
2022-12-18T13:13:18.636Z,2.20
2022-12-18T13:16:07.946Z,2.00
2022-12-18T13:18:35.980Z,2.10
2022-12-18T13:21:19.280Z,2.00
2022-12-18T13:23:46.261Z,2.10
2022-12-18T13:26:27.941Z,2.00
2022-12-18T13:29:02.782Z,2.10
2022-12-18T13:31:42.163Z,2.10
2022-12-18T13:34:28.289Z,2.10
2022-12-18T13:37:17.670Z,2.10
2022-12-18T13:39:44.636Z,2.10
2022-12-18T13:42:31.497Z,2.10
2022-12-18T13:44:59.021Z,2.10
2022-12-18T13:47:38.545Z,2.10
2022-12-18T13:50:29.756Z,2.10
2022-12-18T13:53:00.775Z,2.10
2022-12-18T13:55:28.184Z,2.10
2022-12-18T13:58:05.678Z,2.10
2022-12-18T14:00:32.724Z,2.00
2022-12-18T14:03:00.528Z,2.10
2022-12-18T14:05:32.606Z,2.10
2022-12-18T14:08:07.070Z,2.10
2022-12-18T14:10:48.605Z,2.00
2022-12-18T14:13:29.078Z,2.10
2022-12-18T14:15:58.508Z,2.00
2022-12-18T14:18:35.220Z,2.00
2022-12-18T14:21:04.074Z,2.00
2022-12-18T14:23:41.952Z,2.00
2022-12-18T14:26:23.939Z,2.00
2022-12-18T14:28:52.287Z,2.00
2022-12-18T14:31:21.183Z,2.00
2022-12-18T14:33:47.996Z,2.00
2022-12-18T14:36:23.415Z,2.00
2022-12-18T14:38:58.466Z,2.00
2022-12-18T14:41:26.412Z,2.00
2022-12-18T14:44:05.787Z,2.10
2022-12-18T14:46:44.118Z,2.20
2022-12-18T14:49:22.433Z,2.20
2022-12-18T14:52:20.350Z,2.20
2022-12-18T14:54:48.595Z,2.20
2022-12-18T14:57:36.852Z,2.20
2022-12-18T15:00:18.442Z,2.20
2022-12-18T15:02:54.505Z,2.10
2022-12-18T15:05:28.336Z,2.10
2022-12-18T15:07:57.465Z,2.10
2022-12-18T15:10:29.542Z,2.10
2022-12-18T15:12:57.238Z,2.10
2022-12-18T15:15:40.225Z,2.00
2022-12-18T15:18:11.314Z,1.80
2022-12-18T15:20:56.478Z,1.60
2022-12-18T15:23:33.514Z,1.60
2022-12-18T15:26:02.612Z,1.60
2022-12-18T15:28:50.640Z,1.60
2022-12-18T15:31:18.054Z,1.60
2022-12-18T15:34:01.720Z,1.60
2022-12-18T15:36:31.163Z,1.60
2022-12-18T15:39:05.153Z,1.70
2022-12-18T15:41:35.999Z,1.70
2022-12-18T15:44:04.549Z,1.70
2022-12-18T15:46:31.938Z,1.70
2022-12-18T15:49:02.264Z,1.60
2022-12-18T15:51:37.823Z,1.50
2022-12-18T15:54:07.324Z,1.40
2022-12-18T15:56:52.984Z,1.30
2022-12-18T15:59:21.801Z,1.30
2022-12-18T16:01:51.513Z,1.20
2022-12-18T16:04:21.408Z,1.20
2022-12-18T16:07:13.982Z,1.00
2022-12-18T16:09:36.746Z,1.10
2022-12-18T16:12:03.965Z,1.00
2022-12-18T16:14:31.740Z,0.90
2022-12-18T16:17:01.343Z,0.80
2022-12-18T16:19:29.141Z,0.80
2022-12-18T16:21:57.893Z,0.80
2022-12-18T16:24:30.389Z,0.80
2022-12-18T16:27:00.151Z,0.80
2022-12-18T16:29:28.854Z,0.80
2022-12-18T16:32:00.195Z,0.80
2022-12-18T16:34:29.551Z,0.70
2022-12-18T16:37:07.488Z,0.70
2022-12-18T16:39:38.935Z,0.70
2022-12-18T16:42:15.843Z,0.70
2022-12-18T16:44:43.409Z,0.80
2022-12-18T16:47:10.187Z,0.70
2022-12-18T16:49:38.479Z,0.60
2022-12-18T16:52:06.477Z,0.70
2022-12-18T16:54:34.995Z,0.70
2022-12-18T16:57:01.993Z,0.70
2022-12-18T16:59:29.350Z,0.80
2022-12-18T17:01:57.407Z,0.70
2022-12-18T17:04:25.187Z,0.70
2022-12-18T17:06:53.874Z,0.70
2022-12-18T17:09:27.671Z,0.60
2022-12-18T17:11:55.027Z,0.70
2022-12-18T17:14:24.133Z,0.70
2022-12-18T17:17:19.159Z,0.70
2022-12-18T17:19:38.690Z,0.70
2022-12-18T17:22:05.374Z,0.80
2022-12-18T17:24:35.219Z,0.80
2022-12-18T17:27:03.139Z,0.80
2022-12-18T17:29:29.832Z,0.80
2022-12-18T17:31:56.549Z,0.80
2022-12-18T17:34:24.714Z,0.80
2022-12-18T17:36:51.362Z,0.90
2022-12-18T17:39:20.343Z,0.90
2022-12-18T17:41:48.673Z,0.90
2022-12-18T17:44:16.524Z,0.90
2022-12-18T17:46:43.745Z,0.90
2022-12-18T17:49:11.373Z,0.80
2022-12-18T17:51:38.092Z,0.80
2022-12-18T17:54:06.127Z,0.80
2022-12-18T17:56:33.235Z,0.80
2022-12-18T17:59:00.351Z,0.90
2022-12-18T18:01:27.453Z,0.80
2022-12-18T18:03:56.124Z,0.80
2022-12-18T18:06:24.084Z,0.80
2022-12-18T18:08:50.845Z,0.80
2022-12-18T18:11:39.333Z,0.80
2022-12-18T18:14:12.019Z,0.70
2022-12-18T18:16:47.556Z,0.70
2022-12-18T18:19:17.533Z,0.70
2022-12-18T18:21:47.220Z,0.70
2022-12-18T18:24:16.283Z,0.70
2022-12-18T18:26:43.207Z,0.70
2022-12-18T18:29:15.156Z,0.70
2022-12-18T18:31:42.811Z,0.70
2022-12-18T18:34:15.632Z,0.70
2022-12-18T18:36:42.571Z,0.70
2022-12-18T18:39:09.235Z,0.70
2022-12-18T18:41:37.050Z,0.70
2022-12-18T18:44:03.864Z,0.60
2022-12-18T18:46:30.514Z,0.70
2022-12-18T18:48:57.248Z,0.70
2022-12-18T18:51:23.889Z,0.60
2022-12-18T18:53:52.755Z,0.60
2022-12-18T18:59:08.908Z,0.80
2022-12-18T19:01:35.820Z,0.70
2022-12-18T19:04:02.572Z,0.70
2022-12-18T19:06:29.834Z,0.70
2022-12-18T19:08:57.869Z,0.80
2022-12-18T19:11:44.263Z,0.80
2022-12-18T19:14:13.411Z,0.80
2022-12-18T19:16:41.138Z,0.80
2022-12-18T19:19:08.511Z,0.70
2022-12-18T19:21:35.789Z,0.70
2022-12-18T19:24:02.957Z,0.70
2022-12-18T19:26:29.682Z,0.80
2022-12-18T19:29:07.715Z,0.80
2022-12-18T19:31:36.636Z,0.80
2022-12-18T19:34:05.210Z,0.80
2022-12-18T19:36:33.499Z,0.90
2022-12-18T19:39:02.242Z,1.00
2022-12-18T19:41:32.846Z,1.00
2022-12-18T19:44:00.020Z,1.10
2022-12-18T19:46:28.843Z,1.10
2022-12-18T19:48:55.454Z,1.10
2022-12-18T19:51:30.056Z,1.10
2022-12-18T19:53:59.351Z,1.10
2022-12-18T19:56:32.423Z,1.20
2022-12-18T19:58:59.716Z,1.20
2022-12-18T20:01:28.056Z,1.30
2022-12-18T20:03:56.034Z,1.30
2022-12-18T20:06:34.193Z,1.30
2022-12-18T20:09:07.214Z,1.30
2022-12-18T20:11:40.140Z,1.20
2022-12-18T20:14:12.740Z,1.20
2022-12-18T20:16:40.287Z,1.10
2022-12-18T20:19:07.689Z,1.10
2022-12-18T20:21:34.700Z,1.00
2022-12-18T20:24:02.006Z,0.90
2022-12-18T20:26:29.002Z,1.00
2022-12-18T20:28:56.432Z,1.10
2022-12-18T20:31:24.017Z,1.10
2022-12-18T20:33:51.171Z,1.10
2022-12-18T20:36:25.887Z,1.20
2022-12-18T20:38:59.155Z,1.50
2022-12-18T20:41:27.372Z,1.40
2022-12-18T20:44:04.012Z,1.40
2022-12-18T20:46:30.644Z,1.30
2022-12-18T20:48:57.290Z,1.20
2022-12-18T20:51:26.678Z,1.30
2022-12-18T20:53:55.247Z,1.30
2022-12-18T20:56:22.898Z,1.30
2022-12-18T20:58:50.900Z,1.30
2022-12-18T21:01:23.044Z,1.30
2022-12-18T21:03:50.699Z,1.30
2022-12-18T21:06:20.149Z,1.30
2022-12-18T21:08:46.819Z,1.30
2022-12-18T21:11:47.148Z,1.30
2022-12-18T21:14:17.815Z,1.20
2022-12-18T21:16:44.753Z,1.20
2022-12-18T21:19:12.940Z,1.20
2022-12-18T21:21:40.071Z,1.20
2022-12-18T21:24:07.848Z,1.10
2022-12-18T21:26:34.508Z,1.10
2022-12-18T21:29:04.220Z,1.20
2022-12-18T21:31:33.963Z,1.10
2022-12-18T21:34:02.377Z,1.10
2022-12-18T21:36:29.828Z,1.20
2022-12-18T21:38:56.891Z,1.20
2022-12-18T21:41:43.085Z,1.20
2022-12-18T21:44:12.963Z,1.20
2022-12-18T21:46:43.028Z,1.30
2022-12-18T21:49:11.104Z,1.30
2022-12-18T21:51:38.741Z,1.30
2022-12-18T21:54:05.387Z,1.30
2022-12-18T21:56:51.840Z,1.30
2022-12-18T21:59:27.847Z,1.30
2022-12-18T22:01:56.709Z,1.30
2022-12-18T22:04:24.741Z,1.30
2022-12-18T22:06:51.685Z,1.30
2022-12-18T22:09:20.442Z,1.40
2022-12-18T22:11:48.153Z,1.40
2022-12-18T22:14:15.382Z,1.40
2022-12-18T22:16:42.678Z,1.50
2022-12-18T22:19:11.119Z,1.50
2022-12-18T22:21:40.476Z,1.50
2022-12-18T22:24:29.199Z,1.50
2022-12-18T22:27:01.711Z,1.50
2022-12-18T22:29:47.663Z,1.60
2022-12-18T22:32:29.440Z,1.60
2022-12-18T22:35:04.577Z,1.70
2022-12-18T22:37:33.846Z,1.70
2022-12-18T22:40:03.287Z,1.80
2022-12-18T22:42:31.441Z,1.90
2022-12-18T22:44:58.153Z,1.80
2022-12-18T22:47:29.405Z,1.80
2022-12-18T22:49:57.071Z,1.80
2022-12-18T22:52:24.833Z,1.80
2022-12-18T22:54:53.363Z,1.80
2022-12-18T22:57:23.559Z,1.70
2022-12-18T22:59:50.870Z,1.70
2022-12-18T23:02:18.814Z,1.70
2022-12-18T23:04:45.727Z,1.80
2022-12-18T23:07:12.579Z,1.80
2022-12-18T23:09:39.431Z,1.80
2022-12-18T23:12:06.388Z,1.80
2022-12-18T23:14:33.259Z,1.80
2022-12-18T23:16:59.846Z,1.80
2022-12-18T23:19:26.492Z,1.80
2022-12-18T23:21:54.854Z,1.80
2022-12-18T23:24:27.604Z,1.90
2022-12-18T23:26:57.574Z,1.90
2022-12-18T23:29:24.187Z,1.90
2022-12-18T23:31:50.858Z,1.90
2022-12-18T23:34:17.923Z,1.90
2022-12-18T23:36:45.495Z,2.00
2022-12-18T23:39:22.593Z,2.00
2022-12-18T23:41:56.202Z,2.00
2022-12-18T23:44:23.002Z,2.00
2022-12-18T23:46:49.732Z,2.00
2022-12-18T23:49:16.386Z,1.90
2022-12-18T23:51:43.003Z,2.00
2022-12-18T23:54:10.408Z,2.00
2022-12-18T23:56:37.059Z,2.00
2022-12-18T23:59:03.803Z,2.00
